createdAt,value
2023-02-14T00:02:02.231Z,10.85
2023-02-14T00:05:05.658Z,9.45
2023-02-14T00:08:09.920Z,12.35
2023-02-14T00:11:14.386Z,11.02
2023-02-14T00:14:35.642Z,12.93
2023-02-14T00:17:38.449Z,11.35
2023-02-14T00:20:41.291Z,11.93
2023-02-14T00:23:45.483Z,11.05
2023-02-14T00:26:48.660Z,12.40
2023-02-14T00:29:51.681Z,9.70
2023-02-14T00:32:54.526Z,9.65
2023-02-14T00:35:57.317Z,12.82
2023-02-14T00:39:03.080Z,10.80
2023-02-14T00:42:05.993Z,10.15
2023-02-14T00:45:09.597Z,12.32
2023-02-14T00:48:12.437Z,9.40
2023-02-14T00:51:16.258Z,10.82
2023-02-14T00:54:20.730Z,10.02
2023-02-14T00:57:25.603Z,9.13
2023-02-14T01:00:28.424Z,9.90
2023-02-14T01:03:31.699Z,10.63
2023-02-14T01:06:35.000Z,8.27
2023-02-14T01:09:39.226Z,10.40
2023-02-14T01:12:42.034Z,8.23
2023-02-14T01:15:47.123Z,10.52
2023-02-14T01:18:51.148Z,8.68
2023-02-14T01:21:54.003Z,10.70
2023-02-14T01:25:00.194Z,8.43
2023-02-14T01:28:05.835Z,9.55
2023-02-14T01:31:11.338Z,10.52
2023-02-14T01:34:14.261Z,10.15
2023-02-14T01:37:17.064Z,7.63
2023-02-14T01:40:21.474Z,10.00
2023-02-14T01:43:24.820Z,8.43
2023-02-14T01:46:30.090Z,7.65
2023-02-14T01:49:38.209Z,7.78
2023-02-14T01:52:47.232Z,8.27
2023-02-14T01:55:59.731Z,9.15
2023-02-14T01:59:07.345Z,8.60
2023-02-14T02:02:11.186Z,9.68
2023-02-14T02:05:16.268Z,7.85
2023-02-14T02:08:19.307Z,10.15
2023-02-14T02:11:23.564Z,8.15
2023-02-14T02:14:26.504Z,8.07
2023-02-14T02:17:39.233Z,8.75
2023-02-14T02:21:16.963Z,8.20
2023-02-14T02:24:27.980Z,7.20
2023-02-14T02:28:05.203Z,7.75
2023-02-14T02:31:27.961Z,7.97
2023-02-14T02:35:00.818Z,7.72
2023-02-14T02:38:19.521Z,7.63
2023-02-14T02:41:32.162Z,8.20
2023-02-14T02:44:45.902Z,8.30
2023-02-14T02:47:59.010Z,8.20
2023-02-14T02:51:25.718Z,5.72
2023-02-14T02:54:36.312Z,8.73
2023-02-14T02:57:42.113Z,7.25
2023-02-14T03:00:45.475Z,7.85
2023-02-14T03:04:10.376Z,7.13
2023-02-14T03:07:32.646Z,7.88
2023-02-14T03:10:39.054Z,6.82
2023-02-14T03:14:09.449Z,8.07
2023-02-14T03:17:23.437Z,6.60
2023-02-14T03:20:37.943Z,7.60
2023-02-14T03:23:47.450Z,6.85
2023-02-14T03:26:53.859Z,6.60
2023-02-14T03:30:02.478Z,5.95
2023-02-14T03:33:10.502Z,6.10
2023-02-14T03:36:19.407Z,6.03
2023-02-14T03:39:29.288Z,5.93
2023-02-14T03:42:36.760Z,6.63
2023-02-14T03:45:44.273Z,6.75
2023-02-14T03:48:49.504Z,8.38
2023-02-14T03:51:55.873Z,5.88
2023-02-14T03:55:02.417Z,5.50
2023-02-14T03:58:10.110Z,5.60
2023-02-14T04:01:17.207Z,5.45
2023-02-14T04:04:22.834Z,5.90
2023-02-14T04:07:26.119Z,5.88
2023-02-14T04:10:30.405Z,5.95
2023-02-14T04:13:33.801Z,6.28
2023-02-14T04:16:56.827Z,5.63
2023-02-14T04:19:58.706Z,5.63
2023-02-14T04:23:03.445Z,5.43
2023-02-14T04:26:07.954Z,5.80
2023-02-14T04:29:11.099Z,5.35
2023-02-14T04:32:17.958Z,6.28
2023-02-14T04:35:20.921Z,5.75
2023-02-14T04:38:24.081Z,7.78
2023-02-14T04:41:28.359Z,5.97
2023-02-14T04:44:31.604Z,6.50
2023-02-14T04:47:35.075Z,5.82
2023-02-14T04:50:37.994Z,6.00
2023-02-14T04:53:40.789Z,6.82
2023-02-14T04:56:44.999Z,5.07
2023-02-14T05:02:50.700Z,5.32
2023-02-14T05:05:53.523Z,4.47
2023-02-14T05:08:56.826Z,6.30
2023-02-14T05:12:00.998Z,5.30
2023-02-14T05:15:03.946Z,5.75
2023-02-14T05:18:06.834Z,4.05
2023-02-14T05:21:09.679Z,6.85
2023-02-14T05:24:12.673Z,6.28
2023-02-14T05:27:16.960Z,5.20
2023-02-14T05:30:22.410Z,3.88
2023-02-14T05:33:25.967Z,4.10
2023-02-14T05:36:29.275Z,3.55
2023-02-14T05:39:32.254Z,5.05
2023-02-14T05:42:36.580Z,4.88
2023-02-14T05:45:39.563Z,4.30
2023-02-14T05:48:42.458Z,4.38
2023-02-14T05:51:45.331Z,4.47
2023-02-14T05:54:48.240Z,5.88
2023-02-14T05:57:52.415Z,3.88
2023-02-14T06:00:55.289Z,5.38
2023-02-14T06:03:58.098Z,4.75
2023-02-14T06:07:01.149Z,4.63
2023-02-14T06:10:09.797Z,5.20
2023-02-14T06:13:14.125Z,4.20
2023-02-14T06:16:17.022Z,4.22
2023-02-14T06:19:20.021Z,4.90
2023-02-14T06:22:22.811Z,4.55
2023-02-14T06:25:26.486Z,3.90
2023-02-14T06:28:30.711Z,4.00
2023-02-14T06:31:33.803Z,3.55
2023-02-14T06:34:36.679Z,3.53
2023-02-14T06:37:41.191Z,5.97
2023-02-14T06:40:44.093Z,4.22
2023-02-14T06:43:49.632Z,3.42
2023-02-14T06:46:52.558Z,4.00
2023-02-14T06:49:55.420Z,4.28
2023-02-14T06:52:58.310Z,4.53
2023-02-14T06:56:01.170Z,3.67
2023-02-14T06:59:05.796Z,3.33
2023-02-14T07:02:11.050Z,5.85
2023-02-14T07:05:15.351Z,10.43
2023-02-14T07:08:18.497Z,10.23
2023-02-14T07:11:21.824Z,12.00
2023-02-14T07:14:26.162Z,10.55
2023-02-14T07:17:28.991Z,8.45
2023-02-14T07:20:31.862Z,9.82
2023-02-14T07:23:36.005Z,8.90
2023-02-14T07:26:39.207Z,6.75
2023-02-14T07:29:43.476Z,8.57
2023-02-14T07:32:46.343Z,11.27
2023-02-14T07:35:49.307Z,7.68
2023-02-14T07:38:52.256Z,8.93
2023-02-14T07:41:55.190Z,9.98
2023-02-14T07:45:20.652Z,8.35
2023-02-14T07:48:25.240Z,15.20
2023-02-14T07:51:28.278Z,6.88
2023-02-14T07:54:31.460Z,10.23
2023-02-14T07:57:34.507Z,13.32
2023-02-14T08:00:38.762Z,5.75
2023-02-14T08:03:44.387Z,10.60
2023-02-14T08:06:47.221Z,7.47
2023-02-14T08:09:50.080Z,7.40
2023-02-14T08:13:02.092Z,11.43
2023-02-14T08:16:07.475Z,7.28
2023-02-14T08:19:10.972Z,7.13
2023-02-14T08:22:13.831Z,9.77
2023-02-14T08:25:16.780Z,9.55
2023-02-14T08:28:21.897Z,8.02
2023-02-14T08:31:35.582Z,10.77
2023-02-14T08:34:39.065Z,8.65
2023-02-14T08:37:42.211Z,9.65
2023-02-14T08:40:45.428Z,8.43
2023-02-14T08:43:49.037Z,7.45
2023-02-14T08:46:53.424Z,12.07
2023-02-14T08:49:56.434Z,8.85
2023-02-14T08:52:59.607Z,9.55
2023-02-14T08:56:04.838Z,10.57
2023-02-14T08:59:08.148Z,17.20
2023-02-14T09:02:14.629Z,16.25
2023-02-14T09:05:17.732Z,13.88
2023-02-14T09:08:20.768Z,15.55
2023-02-14T09:11:25.946Z,12.20
2023-02-14T09:14:31.186Z,11.00
2023-02-14T09:17:36.638Z,18.85
2023-02-14T09:20:39.535Z,20.23
2023-02-14T09:23:42.605Z,40.55
2023-02-14T09:26:45.535Z,60.88
2023-02-14T09:29:48.709Z,61.15
2023-02-14T09:32:54.345Z,61.58
2023-02-14T09:36:16.324Z,57.28
2023-02-14T09:39:19.327Z,51.38
2023-02-14T09:42:38.017Z,51.65
2023-02-14T09:45:41.630Z,51.53
2023-02-14T09:48:48.453Z,49.90
2023-02-14T09:51:54.031Z,54.83
2023-02-14T09:55:01.060Z,55.75
2023-02-14T09:58:14.159Z,50.80
2023-02-14T10:01:23.224Z,48.80
2023-02-14T10:04:32.496Z,46.75
2023-02-14T10:07:48.302Z,52.22
2023-02-14T10:11:01.874Z,50.00
2023-02-14T10:14:09.942Z,46.38
2023-02-14T10:17:19.185Z,50.88
2023-02-14T10:20:29.024Z,47.10
2023-02-14T10:23:35.679Z,49.92
2023-02-14T10:26:41.333Z,44.72
2023-02-14T10:29:44.281Z,48.92
2023-02-14T10:32:49.961Z,49.47
2023-02-14T10:36:01.448Z,45.92
2023-02-14T10:39:13.810Z,50.03
2023-02-14T10:42:23.932Z,46.83
2023-02-14T10:45:35.375Z,44.83
2023-02-14T10:48:48.070Z,44.88
2023-02-14T10:51:58.266Z,54.20
2023-02-14T10:55:12.455Z,47.03
2023-02-14T10:58:20.847Z,43.05
2023-02-14T11:01:24.765Z,41.72
2023-02-14T11:04:29.040Z,39.40
2023-02-14T11:07:33.504Z,39.22
2023-02-14T11:10:36.401Z,38.60
2023-02-14T11:13:42.718Z,47.85
2023-02-14T11:16:45.565Z,43.72
2023-02-14T11:19:58.314Z,37.88
2023-02-14T11:23:02.579Z,40.00
2023-02-14T11:26:09.670Z,40.33
2023-02-14T11:29:16.226Z,43.08
2023-02-14T11:32:23.812Z,40.05
2023-02-14T11:35:34.398Z,36.28
2023-02-14T11:38:40.076Z,41.00
2023-02-14T11:41:51.174Z,37.35
2023-02-14T11:44:58.351Z,39.42
2023-02-14T11:48:38.327Z,41.38
2023-02-14T11:51:50.881Z,36.55
2023-02-14T11:55:05.259Z,40.00
2023-02-14T11:58:36.681Z,35.38
2023-02-14T12:01:45.557Z,37.65
2023-02-14T12:04:53.411Z,35.63
2023-02-14T12:07:57.949Z,37.67
2023-02-14T12:11:07.453Z,32.83
2023-02-14T12:14:22.771Z,33.47
2023-02-14T12:17:33.043Z,33.25
2023-02-14T12:20:42.051Z,36.13
2023-02-14T12:23:51.489Z,33.25
2023-02-14T12:27:03.576Z,36.75
2023-02-14T12:30:14.255Z,31.77
2023-02-14T12:33:21.145Z,33.28
2023-02-14T12:36:38.547Z,41.20
2023-02-14T12:39:55.741Z,33.90
2023-02-14T12:43:15.778Z,29.98
2023-02-14T12:47:00.206Z,34.92
2023-02-14T12:50:40.047Z,28.23
2023-02-14T12:54:01.237Z,25.58
2023-02-14T12:57:14.685Z,31.75
2023-02-14T13:00:30.565Z,29.10
2023-02-14T13:03:59.885Z,28.15
2023-02-14T13:07:13.444Z,29.90
2023-02-14T13:10:26.203Z,29.80
2023-02-14T13:13:41.584Z,26.20
2023-02-14T13:16:52.877Z,26.85
2023-02-14T13:20:04.536Z,23.13
2023-02-14T13:23:14.444Z,24.73
2023-02-14T13:26:20.307Z,24.75
2023-02-14T13:29:25.932Z,27.08
2023-02-14T13:32:34.402Z,19.98
2023-02-14T13:35:38.565Z,22.50
2023-02-14T13:38:45.763Z,22.42
2023-02-14T13:41:48.668Z,24.75
2023-02-14T13:44:52.754Z,21.52
2023-02-14T13:48:06.579Z,20.92
2023-02-14T13:51:11.377Z,18.15
2023-02-14T13:54:31.862Z,19.42
2023-02-14T13:57:36.650Z,17.77
2023-02-14T14:00:42.640Z,17.38
2023-02-14T14:03:58.372Z,28.63
2023-02-14T14:07:30.191Z,19.80
2023-02-14T14:10:44.767Z,20.08
2023-02-14T14:14:02.647Z,20.45
2023-02-14T14:17:27.639Z,19.95
2023-02-14T14:20:47.836Z,17.90
2023-02-14T14:24:06.917Z,20.05
2023-02-14T14:27:17.051Z,19.23
2023-02-14T14:30:25.220Z,24.17
2023-02-14T14:33:30.746Z,19.77
2023-02-14T14:36:35.439Z,20.83
2023-02-14T14:39:39.839Z,18.23
2023-02-14T14:42:43.845Z,21.38
2023-02-14T14:45:48.148Z,19.98
2023-02-14T14:48:55.521Z,17.55
2023-02-14T14:51:59.773Z,18.15
2023-02-14T14:55:04.281Z,20.52
2023-02-14T14:58:28.492Z,18.48
2023-02-14T15:01:38.181Z,18.45
2023-02-14T15:04:41.130Z,17.08
2023-02-14T15:07:45.418Z,16.15
2023-02-14T15:10:52.293Z,15.55
2023-02-14T15:13:54.208Z,21.25
2023-02-14T15:17:01.435Z,19.77
2023-02-14T15:20:08.240Z,16.85
2023-02-14T15:23:20.564Z,19.35
2023-02-14T15:26:31.916Z,16.23
2023-02-14T15:29:34.892Z,14.27
2023-02-14T15:32:39.267Z,16.45
2023-02-14T15:35:43.860Z,15.48
2023-02-14T15:38:48.464Z,17.73
2023-02-14T15:41:54.284Z,16.55
2023-02-14T15:45:22.357Z,21.92
2023-02-14T15:48:28.889Z,14.90
2023-02-14T15:51:36.321Z,16.63
2023-02-14T15:54:44.429Z,16.70
2023-02-14T15:57:55.235Z,15.75
2023-02-14T16:00:58.278Z,16.42
2023-02-14T16:04:03.549Z,15.40
2023-02-14T16:07:21.403Z,14.77
2023-02-14T16:10:27.022Z,14.82
2023-02-14T16:13:34.915Z,14.27
2023-02-14T16:17:02.325Z,15.88
2023-02-14T16:20:23.590Z,18.13
2023-02-14T16:23:28.672Z,15.43
2023-02-14T16:26:34.239Z,16.00
2023-02-14T16:29:38.499Z,18.05
2023-02-14T16:32:42.047Z,14.82
2023-02-14T16:35:45.932Z,19.15
2023-02-14T16:38:50.020Z,15.52
2023-02-14T16:41:57.357Z,15.13
2023-02-14T16:45:00.290Z,15.15
2023-02-14T16:48:03.326Z,13.95
2023-02-14T16:51:06.399Z,16.50
2023-02-14T16:54:13.894Z,14.30
2023-02-14T16:57:21.364Z,14.48
2023-02-14T17:00:25.981Z,17.38
2023-02-14T17:03:28.948Z,19.98
2023-02-14T17:06:35.218Z,14.63
2023-02-14T17:09:43.260Z,18.27
2023-02-14T17:12:49.821Z,15.30
2023-02-14T17:15:53.927Z,14.50
2023-02-14T17:18:56.897Z,18.95
2023-02-14T17:22:00.778Z,14.90
2023-02-14T17:25:03.735Z,17.30
2023-02-14T17:28:08.186Z,15.70
2023-02-14T17:31:11.834Z,15.40
2023-02-14T17:34:14.688Z,17.73
2023-02-14T17:37:18.881Z,14.35
2023-02-14T17:40:22.215Z,12.50
2023-02-14T17:43:26.508Z,22.73
2023-02-14T17:46:30.400Z,21.27
2023-02-14T17:49:33.434Z,17.20
2023-02-14T17:52:36.363Z,22.33
2023-02-14T17:55:39.147Z,14.45
2023-02-14T17:58:43.342Z,16.80
2023-02-14T18:01:46.352Z,14.90
2023-02-14T18:04:49.337Z,15.43
2023-02-14T18:07:52.481Z,17.70
2023-02-14T18:10:55.712Z,19.70
2023-02-14T18:14:01.658Z,16.73
2023-02-14T18:17:04.595Z,14.15
2023-02-14T18:20:11.987Z,15.23
2023-02-14T18:23:14.886Z,15.70
2023-02-14T18:26:19.159Z,18.08
2023-02-14T18:29:23.797Z,17.75
2023-02-14T18:32:26.750Z,14.82
2023-02-14T18:35:29.606Z,16.95
2023-02-14T18:38:32.538Z,29.95
2023-02-14T18:41:35.888Z,16.15
2023-02-14T18:44:40.167Z,22.42
2023-02-14T18:47:44.550Z,21.23
2023-02-14T18:50:47.482Z,24.40
2023-02-14T18:53:52.221Z,20.73
2023-02-14T18:56:55.170Z,26.63
2023-02-14T18:59:59.489Z,21.92
2023-02-14T19:03:02.485Z,21.67
2023-02-14T19:06:06.086Z,25.45
2023-02-14T19:09:12.015Z,22.90
2023-02-14T19:12:15.206Z,22.27
2023-02-14T19:15:20.904Z,18.02
2023-02-14T19:18:25.758Z,18.17
2023-02-14T19:21:30.756Z,20.52
2023-02-14T19:24:33.776Z,21.80
2023-02-14T19:27:37.020Z,20.45
2023-02-14T19:30:41.310Z,21.52
2023-02-14T19:33:46.312Z,18.10
2023-02-14T19:36:52.634Z,20.55
2023-02-14T19:39:55.535Z,24.02
2023-02-14T19:42:58.356Z,20.85
2023-02-14T19:46:05.034Z,21.23
2023-02-14T19:49:08.012Z,25.40
2023-02-14T19:52:25.773Z,23.25
2023-02-14T19:55:29.495Z,23.45
2023-02-14T19:58:32.360Z,21.13
2023-02-14T20:01:39.431Z,23.50
2023-02-14T20:04:42.500Z,23.95
2023-02-14T20:07:49.162Z,22.08
2023-02-14T20:10:52.071Z,25.23
2023-02-14T20:13:55.619Z,24.85
2023-02-14T20:17:02.243Z,22.33
2023-02-14T20:20:08.627Z,24.45
2023-02-14T20:23:11.500Z,25.20
2023-02-14T20:26:15.817Z,25.00
2023-02-14T20:29:19.695Z,22.60
2023-02-14T20:32:23.956Z,29.20
2023-02-14T20:35:26.913Z,26.92
2023-02-14T20:38:29.875Z,25.20
2023-02-14T20:41:34.464Z,25.20
2023-02-14T20:44:37.376Z,20.83
2023-02-14T20:47:41.619Z,22.42
2023-02-14T20:50:44.966Z,22.60
2023-02-14T20:53:48.324Z,26.63
2023-02-14T20:56:51.712Z,27.25
2023-02-14T20:59:54.565Z,27.08
2023-02-14T21:02:58.836Z,25.25
2023-02-14T21:06:01.673Z,26.50
2023-02-14T21:09:05.294Z,28.52
2023-02-14T21:12:08.655Z,29.60
2023-02-14T21:15:11.549Z,23.20
2023-02-14T21:18:15.879Z,22.83
2023-02-14T21:21:21.943Z,25.80
2023-02-14T21:24:25.141Z,25.52
2023-02-14T21:27:28.025Z,21.50
2023-02-14T21:30:32.562Z,25.27
2023-02-14T21:33:37.303Z,23.08
2023-02-14T21:36:40.291Z,22.15
2023-02-14T21:39:44.228Z,24.73
2023-02-14T21:42:47.174Z,23.83
2023-02-14T21:45:56.934Z,23.35
2023-02-14T21:49:20.090Z,21.00
2023-02-14T21:52:22.971Z,22.25
2023-02-14T21:55:25.788Z,19.08
2023-02-14T21:58:28.655Z,20.08
2023-02-14T22:01:33.608Z,22.52
2023-02-14T22:04:38.156Z,21.65
2023-02-14T22:07:41.071Z,23.88
2023-02-14T22:10:43.937Z,23.27
2023-02-14T22:13:46.862Z,20.02
2023-02-14T22:16:49.768Z,22.70
2023-02-14T22:19:54.014Z,17.88
2023-02-14T22:22:56.803Z,22.33
2023-02-14T22:26:09.139Z,19.60
2023-02-14T22:29:13.847Z,17.15
2023-02-14T22:32:16.787Z,17.52
2023-02-14T22:35:21.184Z,21.08
2023-02-14T22:38:24.203Z,21.42
2023-02-14T22:41:27.148Z,19.65
2023-02-14T22:44:30.082Z,18.05
2023-02-14T22:47:33.336Z,18.88
2023-02-14T22:50:37.644Z,18.38
2023-02-14T22:53:40.633Z,20.75
2023-02-14T22:56:45.291Z,18.20
2023-02-14T22:59:48.159Z,18.95
2023-02-14T23:02:51.038Z,22.42
2023-02-14T23:05:58.983Z,19.10
2023-02-14T23:09:03.043Z,18.02
2023-02-14T23:12:26.434Z,15.85
2023-02-14T23:15:48.953Z,16.08
2023-02-14T23:19:09.539Z,15.30
2023-02-14T23:22:15.996Z,18.42
2023-02-14T23:25:19.068Z,17.40
2023-02-14T23:28:21.944Z,17.17
2023-02-14T23:31:24.862Z,18.15
2023-02-14T23:34:28.008Z,14.18
2023-02-14T23:37:32.226Z,17.30
2023-02-14T23:40:55.327Z,15.15
2023-02-14T23:43:59.063Z,17.13
2023-02-14T23:47:04.234Z,22.02
2023-02-14T23:50:08.247Z,16.30
2023-02-14T23:53:15.293Z,14.20
2023-02-14T23:56:18.507Z,16.17
2023-02-14T23:59:22.693Z,13.48
